Time,TemperatureF,DewpointF,PressureIn,WindDirection,WindDirectionDegrees,WindSpeedMPH,WindSpeedGustMPH,Humidity,HourlyPrecipIn,Conditions,Clouds,dailyrainin,SoftwareType,DateUTC
2013-07-12 00:01:00,63.8,61.7,29.98,WNW,289,0.0,0.0,93,0.00,,,0.00,VWS V14.01,2013-07-12 04:01:00,
2013-07-12 00:16:00,63.5,61.4,29.98,WNW,289,0.0,0.0,93,0.00,,,0.00,VWS V14.01,2013-07-12 04:16:00,
2013-07-12 00:31:00,63.3,61.5,29.99,WNW,288,0.0,0.0,94,0.00,,,0.00,VWS V14.01,2013-07-12 04:31:00,
2013-07-12 00:46:00,63.1,61.3,29.99,WNW,289,0.0,0.0,94,0.00,,,0.00,VWS V14.01,2013-07-12 04:46:00,
2013-07-12 01:01:00,63.1,61.7,30.00,WNW,289,0.0,0.0,95,0.00,,,0.00,VWS V14.01,2013-07-12 05:01:00,
2013-07-12 01:16:00,63.0,61.5,30.00,WNW,289,0.0,0.0,95,0.00,,,0.00,VWS V14.01,2013-07-12 05:16:00,
2013-07-12 01:31:00,62.7,61.2,30.00,WNW,289,0.0,0.0,95,0.00,,,0.00,VWS V14.01,2013-07-12 05:31:00,
2013-07-12 01:46:00,62.4,61.0,30.00,WNW,288,0.0,0.0,95,0.00,,,0.00,VWS V14.01,2013-07-12 05:46:00,
2013-07-12 02:01:00,62.1,60.7,29.99,WNW,289,0.0,0.0,95,0.00,,,0.00,VWS V14.01,2013-07-12 06:01:00,
2013-07-12 02:16:00,61.8,60.4,29.99,WNW,288,0.0,0.0,95,0.00,,,0.00,VWS V14.01,2013-07-12 06:16:00,
2013-07-12 02:31:00,61.4,60.0,30.00,WNW,289,0.0,0.0,95,0.00,,,0.00,VWS V14.01,2013-07-12 06:31:00,
2013-07-12 02:46:00,61.0,59.6,30.01,WNW,289,0.0,0.0,95,0.00,,,0.00,VWS V14.01,2013-07-12 06:46:00,
2013-07-12 03:01:00,60.8,59.7,30.02,WNW,288,0.0,0.0,96,0.00,,,0.00,VWS V14.01,2013-07-12 07:01:00,
2013-07-12 03:16:00,61.0,59.9,30.02,WNW,289,0.0,0.0,96,0.00,,,0.00,VWS V14.01,2013-07-12 07:16:00,
2013-07-12 03:31:00,61.0,59.9,30.02,WNW,288,0.0,0.0,96,0.00,,,0.00,VWS V14.01,2013-07-12 07:31:00,
2013-07-12 03:46:00,60.9,59.8,30.02,WNW,289,0.0,0.0,96,0.00,,,0.00,VWS V14.01,2013-07-12 07:46:00,
2013-07-12 04:01:00,61.0,59.9,30.03,WNW,288,0.0,0.0,96,0.00,,,0.00,VWS V14.01,2013-07-12 08:01:00,
2013-07-12 04:16:00,61.0,59.9,30.03,WNW,288,0.0,0.0,96,0.00,,,0.00,VWS V14.01,2013-07-12 08:16:00,
2013-07-12 04:31:00,60.9,60.0,30.04,WNW,288,0.0,0.0,97,0.00,,,0.00,VWS V14.01,2013-07-12 08:31:00,
2013-07-12 04:46:00,60.5,59.4,30.03,WNW,289,0.0,0.0,96,0.00,,,0.00,VWS V14.01,2013-07-12 08:46:00,
2013-07-12 05:01:00,60.5,59.7,30.04,WNW,289,0.0,0.0,97,0.00,,,0.00,VWS V14.01,2013-07-12 09:01:00,
2013-07-12 05:16:00,60.5,59.7,30.04,WNW,289,0.0,0.0,97,0.00,,,0.00,VWS V14.01,2013-07-12 09:16:00,
2013-07-12 05:31:00,60.5,59.7,30.05,WNW,289,0.0,0.0,97,0.00,,,0.00,VWS V14.01,2013-07-12 09:31:00,
2013-07-12 05:46:00,60.6,59.8,30.05,WNW,288,0.0,0.0,97,0.00,,,0.00,VWS V14.01,2013-07-12 09:46:00,
2013-07-12 06:01:00,60.7,59.8,30.05,WNW,289,0.0,0.0,97,0.00,,,0.00,VWS V14.01,2013-07-12 10:01:00,
2013-07-12 06:16:00,60.7,59.8,30.06,WNW,289,0.0,0.0,97,0.00,,,0.00,VWS V14.01,2013-07-12 10:16:00,
2013-07-12 06:31:00,60.8,60.0,30.07,WNW,289,0.0,0.0,97,0.00,,,0.00,VWS V14.01,2013-07-12 10:31:00,
2013-07-12 06:46:00,61.3,60.7,30.07,WNW,289,0.0,0.0,98,0.00,,,0.00,VWS V14.01,2013-07-12 10:46:00,
2013-07-12 07:01:00,62.3,61.7,30.07,WNW,288,0.0,0.0,98,0.00,,,0.00,VWS V14.01,2013-07-12 11:01:00,
2013-07-12 07:16:00,63.1,62.5,30.08,WNW,288,0.0,0.0,98,0.00,,,0.00,VWS V14.01,2013-07-12 11:16:00,
2013-07-12 07:31:00,63.9,63.3,30.08,WNW,289,0.0,0.0,98,0.00,,,0.00,VWS V14.01,2013-07-12 11:31:00,
2013-07-12 07:46:00,64.4,63.8,30.08,WNW,289,0.0,0.0,98,0.00,,,0.00,VWS V14.01,2013-07-12 11:46:00,
2013-07-12 08:01:00,64.8,64.2,30.09,WNW,289,0.0,0.0,98,0.00,,,0.00,VWS V14.01,2013-07-12 12:01:00,
2013-07-12 08:16:00,65.4,64.8,30.09,North,355,0.0,2.0,98,0.00,,,0.00,VWS V14.01,2013-07-12 12:16:00,
2013-07-12 08:31:00,66.3,65.4,30.10,North,355,0.0,2.0,97,0.00,,,0.00,VWS V14.01,2013-07-12 12:31:00,
2013-07-12 08:46:00,67.2,65.7,30.10,North,360,0.0,1.0,95,0.00,,,0.00,VWS V14.01,2013-07-12 12:46:00,
2013-07-12 09:01:00,68.1,66.0,30.10,North,360,0.0,2.0,93,0.00,,,0.00,VWS V14.01,2013-07-12 13:01:00,
2013-07-12 09:16:00,68.8,66.1,30.11,North,5,0.0,2.0,91,0.00,,,0.00,VWS V14.01,2013-07-12 13:16:00,
2013-07-12 09:31:00,69.2,65.5,30.10,NNE,32,1.0,7.0,88,0.00,,,0.00,VWS V14.01,2013-07-12 13:31:00,
2013-07-12 09:46:00,69.6,65.6,30.10,NNE,32,1.0,4.0,87,0.00,,,0.00,VWS V14.01,2013-07-12 13:46:00,
2013-07-12 10:01:00,70.0,65.3,30.10,ENE,59,0.0,5.0,85,0.00,,,0.00,VWS V14.01,2013-07-12 14:01:00,
2013-07-12 10:16:00,70.4,65.3,30.10,NE,43,0.0,3.0,84,0.00,,,0.00,VWS V14.01,2013-07-12 14:16:00,
2013-07-12 10:31:00,70.9,65.8,30.10,NE,36,2.0,5.0,84,0.00,,,0.00,VWS V14.01,2013-07-12 14:31:00,
2013-07-12 10:46:00,71.5,66.4,30.10,NE,52,0.0,4.0,84,0.00,,,0.00,VWS V14.01,2013-07-12 14:46:00,
2013-07-12 11:01:00,71.9,66.1,30.10,NE,55,1.0,3.0,82,0.00,,,0.00,VWS V14.01,2013-07-12 15:01:00,
2013-07-12 11:16:00,72.2,66.8,30.10,NNE,12,2.0,4.0,83,0.00,,,0.00,VWS V14.01,2013-07-12 15:16:00,
2013-07-12 11:31:00,72.9,67.1,30.10,NNE,28,2.0,5.0,82,0.00,,,0.00,VWS V14.01,2013-07-12 15:31:00,
2013-07-12 11:46:00,73.3,67.1,30.11,NNE,22,0.0,5.0,81,0.00,,,0.00,VWS V14.01,2013-07-12 15:46:00,
2013-07-12 12:01:00,73.8,68.0,30.11,ENE,68,0.0,4.0,82,0.00,,,0.00,VWS V14.01,2013-07-12 16:01:00,
2013-07-12 12:16:00,73.5,66.2,30.11,NNE,32,1.0,6.0,78,0.00,,,0.00,VWS V14.01,2013-07-12 16:16:00,
2013-07-12 12:31:00,73.6,66.3,30.11,NE,46,0.0,5.0,78,0.00,,,0.00,VWS V14.01,2013-07-12 16:31:00,
2013-07-12 12:46:00,74.0,67.4,30.11,North,360,2.0,6.0,80,0.00,,,0.00,VWS V14.01,2013-07-12 16:46:00,
2013-07-12 13:16:00,73.1,66.6,30.12,NE,42,0.0,6.0,80,0.00,,,0.00,VWS V14.01,2013-07-12 17:16:00,
2013-07-12 13:31:00,73.6,66.3,30.12,NNW,330,0.0,7.0,78,0.00,,,0.00,VWS V14.01,2013-07-12 17:31:00,
2013-07-12 13:46:00,74.4,67.1,30.11,ENE,68,2.0,3.0,78,0.00,,,0.00,VWS V14.01,2013-07-12 17:46:00,
2013-07-12 14:01:00,74.6,65.8,30.11,NNE,32,0.0,5.0,74,0.00,,,0.00,VWS V14.01,2013-07-12 18:01:00,
2013-07-12 14:16:00,74.6,65.4,30.12,NE,51,4.0,8.0,73,0.00,,,0.00,VWS V14.01,2013-07-12 18:16:00,
2013-07-12 14:31:00,74.4,65.6,30.12,North,5,2.0,6.0,74,0.00,,,0.00,VWS V14.01,2013-07-12 18:31:00,
2013-07-12 14:46:00,73.9,64.3,30.12,NE,51,0.0,9.0,72,0.00,,,0.00,VWS V14.01,2013-07-12 18:46:00,
2013-07-12 15:01:00,74.1,64.5,30.12,ENE,59,2.0,5.0,72,0.00,,,0.00,VWS V14.01,2013-07-12 19:01:00,
2013-07-12 15:16:00,73.5,63.5,30.12,NE,55,3.0,5.0,71,0.00,,,0.00,VWS V14.01,2013-07-12 19:16:00,
2013-07-12 15:46:00,73.3,62.9,30.11,North,11,0.0,5.0,70,0.00,,,0.00,VWS V14.01,2013-07-12 19:46:00,
2013-07-12 16:01:00,72.5,62.2,30.11,North,11,0.0,7.0,70,0.00,,,0.00,VWS V14.01,2013-07-12 20:01:00,
2013-07-12 16:16:00,72.4,62.9,30.10,North,360,1.0,5.0,72,0.00,,,0.00,VWS V14.01,2013-07-12 20:16:00,
2013-07-12 16:31:00,72.5,62.6,30.10,NE,45,0.0,4.0,71,0.00,,,0.00,VWS V14.01,2013-07-12 20:31:00,
2013-07-12 17:01:00,72.4,63.3,30.09,NE,44,0.0,3.0,73,0.00,,,0.00,VWS V14.01,2013-07-12 21:01:00,
2013-07-12 17:17:00,72.4,63.3,30.10,NNE,14,0.0,4.0,73,0.00,,,0.00,VWS V14.01,2013-07-12 21:17:00,
2013-07-12 17:31:00,72.0,62.1,30.10,NNE,25,0.0,4.0,71,0.00,,,0.00,VWS V14.01,2013-07-12 21:31:00,
2013-07-12 17:46:00,71.9,62.0,30.10,North,355,0.0,4.0,71,0.00,,,0.00,VWS V14.01,2013-07-12 21:46:00,
2013-07-12 18:16:00,71.5,62.4,30.10,North,11,0.0,1.0,73,0.00,,,0.00,VWS V14.01,2013-07-12 22:16:00,
2013-07-12 18:31:00,71.2,62.5,30.09,North,11,0.0,1.0,74,0.00,,,0.00,VWS V14.01,2013-07-12 22:31:00,
2013-07-12 18:46:00,70.7,61.6,30.10,NNE,14,0.0,2.0,73,0.00,,,0.00,VWS V14.01,2013-07-12 22:46:00,
2013-07-12 19:01:00,70.4,62.5,30.10,NNE,14,0.0,1.0,76,0.00,,,0.00,VWS V14.01,2013-07-12 23:01:00,
2013-07-12 19:16:00,69.9,62.4,30.10,NNE,14,0.0,1.0,77,0.00,,,0.00,VWS V14.01,2013-07-12 23:16:00,
2013-07-12 19:46:00,69.3,62.5,30.11,NNE,14,0.0,0.0,79,0.00,,,0.00,VWS V14.01,2013-07-12 23:46:00,
2013-07-12 20:01:00,68.9,62.5,30.11,NNE,14,0.0,0.0,80,0.00,,,0.00,VWS V14.01,2013-07-13 00:01:00,
2013-07-12 20:16:00,68.5,62.5,30.11,NNE,14,0.0,0.0,81,0.00,,,0.00,VWS V14.01,2013-07-13 00:16:00,
2013-07-12 20:31:00,68.0,62.3,30.10,NNE,14,0.0,0.0,82,0.00,,,0.00,VWS V14.01,2013-07-13 00:31:00,
2013-07-12 20:46:00,67.5,62.5,30.11,NNE,14,0.0,0.0,84,0.00,,,0.00,VWS V14.01,2013-07-13 00:46:00,
2013-07-12 21:01:00,67.0,62.7,30.12,NNE,14,0.0,0.0,86,0.00,,,0.00,VWS V14.01,2013-07-13 01:01:00,
2013-07-12 21:16:00,66.5,62.5,30.12,NNE,14,0.0,0.0,87,0.00,,,0.00,VWS V14.01,2013-07-13 01:16:00,
2013-07-12 21:31:00,65.9,62.6,30.12,NNE,14,0.0,0.0,89,0.00,,,0.00,VWS V14.01,2013-07-13 01:31:00,
2013-07-12 21:46:00,65.4,62.1,30.12,NNE,14,0.0,0.0,89,0.00,,,0.00,VWS V14.01,2013-07-13 01:46:00,
2013-07-12 22:31:00,64.5,62.1,30.14,NNE,14,0.0,0.0,92,0.00,,,0.00,VWS V14.01,2013-07-13 02:31:00,
2013-07-12 22:46:00,64.5,62.4,30.14,NNE,14,0.0,0.0,93,0.00,,,0.00,VWS V14.01,2013-07-13 02:46:00,
2013-07-12 23:01:00,64.3,62.2,30.14,NNE,14,0.0,0.0,93,0.00,,,0.00,VWS V14.01,2013-07-13 03:01:00,
2013-07-12 23:16:00,64.0,62.2,30.15,NNE,14,0.0,0.0,94,0.00,,,0.00,VWS V14.01,2013-07-13 03:16:00,
2013-07-12 23:31:00,63.7,62.0,30.15,NNE,14,0.0,0.0,94,0.00,,,0.00,VWS V14.01,2013-07-13 03:31:00,
2013-07-12 23:46:00,63.4,61.7,30.14,NNE,14,0.0,0.0,94,0.00,,,0.00,VWS V14.01,2013-07-13 03:46:00,